sensor_id;sensor_type;location;lat;lon;timestamp;P1;durP1;ratioP1;P2;durP2;ratioP2
11100;SDS011;5604;50.722;7.078;2023-07-28T00:00:31;2.70;;;2.50;;
11100;SDS011;5604;50.722;7.078;2023-07-28T00:03:03;2.40;;;1.60;;
11100;SDS011;5604;50.722;7.078;2023-07-28T00:05:31;2.97;;;1.90;;
11100;SDS011;5604;50.722;7.078;2023-07-28T00:08:00;2.77;;;1.57;;
11100;SDS011;5604;50.722;7.078;2023-07-28T00:10:28;2.00;;;1.70;;
11100;SDS011;5604;50.722;7.078;2023-07-28T00:12:56;1.73;;;1.63;;
11100;SDS011;5604;50.722;7.078;2023-07-28T00:15:25;1.87;;;1.50;;
11100;SDS011;5604;50.722;7.078;2023-07-28T00:17:55;3.83;;;1.80;;
11100;SDS011;5604;50.722;7.078;2023-07-28T00:23:22;2.37;;;1.87;;
11100;SDS011;5604;50.722;7.078;2023-07-28T00:25:51;2.80;;;1.73;;
11100;SDS011;5604;50.722;7.078;2023-07-28T00:28:19;2.10;;;1.93;;
11100;SDS011;5604;50.722;7.078;2023-07-28T00:30:48;3.27;;;1.67;;
11100;SDS011;5604;50.722;7.078;2023-07-28T00:33:16;2.10;;;1.90;;
11100;SDS011;5604;50.722;7.078;2023-07-28T00:35:45;2.80;;;1.67;;
11100;SDS011;5604;50.722;7.078;2023-07-28T00:38:13;1.90;;;1.80;;
11100;SDS011;5604;50.722;7.078;2023-07-28T00:40:42;2.00;;;1.80;;
11100;SDS011;5604;50.722;7.078;2023-07-28T00:43:11;1.93;;;1.77;;
11100;SDS011;5604;50.722;7.078;2023-07-28T00:45:40;2.17;;;1.87;;
11100;SDS011;5604;50.722;7.078;2023-07-28T00:48:10;3.10;;;2.20;;
11100;SDS011;5604;50.722;7.078;2023-07-28T00:50:39;1.90;;;1.67;;
11100;SDS011;5604;50.722;7.078;2023-07-28T00:53:10;2.10;;;1.70;;
11100;SDS011;5604;50.722;7.078;2023-07-28T00:55:39;1.97;;;1.60;;
11100;SDS011;5604;50.722;7.078;2023-07-28T00:58:09;4.63;;;1.90;;
11100;SDS011;5604;50.722;7.078;2023-07-28T01:00:37;2.57;;;1.67;;
11100;SDS011;5604;50.722;7.078;2023-07-28T01:03:06;6.50;;;1.80;;
11100;SDS011;5604;50.722;7.078;2023-07-28T01:05:38;1.87;;;1.77;;
11100;SDS011;5604;50.722;7.078;2023-07-28T01:08:10;1.90;;;1.43;;
11100;SDS011;5604;50.722;7.078;2023-07-28T01:10:42;2.33;;;1.90;;
11100;SDS011;5604;50.722;7.078;2023-07-28T01:13:12;2.93;;;1.60;;
11100;SDS011;5604;50.722;7.078;2023-07-28T01:15:40;1.50;;;1.40;;
11100;SDS011;5604;50.722;7.078;2023-07-28T01:18:08;4.23;;;1.60;;
11100;SDS011;5604;50.722;7.078;2023-07-28T01:20:37;1.77;;;1.47;;
11100;SDS011;5604;50.722;7.078;2023-07-28T01:23:07;3.17;;;1.50;;
11100;SDS011;5604;50.722;7.078;2023-07-28T01:25:42;4.93;;;1.60;;
11100;SDS011;5604;50.722;7.078;2023-07-28T01:28:16;1.50;;;1.37;;
11100;SDS011;5604;50.722;7.078;2023-07-28T01:30:45;1.53;;;1.40;;
11100;SDS011;5604;50.722;7.078;2023-07-28T01:33:13;1.40;;;1.30;;
11100;SDS011;5604;50.722;7.078;2023-07-28T01:35:41;4.73;;;1.47;;
11100;SDS011;5604;50.722;7.078;2023-07-28T01:38:10;1.70;;;1.50;;
11100;SDS011;5604;50.722;7.078;2023-07-28T01:40:39;1.50;;;1.33;;
11100;SDS011;5604;50.722;7.078;2023-07-28T01:43:07;2.13;;;1.30;;
11100;SDS011;5604;50.722;7.078;2023-07-28T01:45:37;1.70;;;1.60;;
11100;SDS011;5604;50.722;7.078;2023-07-28T01:48:05;3.57;;;1.27;;
11100;SDS011;5604;50.722;7.078;2023-07-28T01:50:35;1.33;;;1.23;;
11100;SDS011;5604;50.722;7.078;2023-07-28T01:53:04;3.00;;;1.43;;
11100;SDS011;5604;50.722;7.078;2023-07-28T01:55:32;2.20;;;1.20;;
11100;SDS011;5604;50.722;7.078;2023-07-28T01:58:01;1.63;;;1.40;;
11100;SDS011;5604;50.722;7.078;2023-07-28T02:00:30;1.93;;;1.63;;
11100;SDS011;5604;50.722;7.078;2023-07-28T02:02:59;2.80;;;1.10;;
11100;SDS011;5604;50.722;7.078;2023-07-28T02:05:29;1.57;;;1.27;;
11100;SDS011;5604;50.722;7.078;2023-07-28T02:07:57;4.10;;;1.20;;
11100;SDS011;5604;50.722;7.078;2023-07-28T02:10:25;2.10;;;1.13;;
11100;SDS011;5604;50.722;7.078;2023-07-28T02:12:54;2.20;;;1.30;;
11100;SDS011;5604;50.722;7.078;2023-07-28T02:15:22;1.60;;;1.20;;
11100;SDS011;5604;50.722;7.078;2023-07-28T02:17:50;2.50;;;1.03;;
11100;SDS011;5604;50.722;7.078;2023-07-28T02:20:24;2.60;;;1.30;;
11100;SDS011;5604;50.722;7.078;2023-07-28T02:22:52;2.13;;;1.33;;
11100;SDS011;5604;50.722;7.078;2023-07-28T02:25:21;2.83;;;1.13;;
11100;SDS011;5604;50.722;7.078;2023-07-28T02:27:49;3.77;;;1.00;;
11100;SDS011;5604;50.722;7.078;2023-07-28T02:30:18;2.40;;;1.40;;
11100;SDS011;5604;50.722;7.078;2023-07-28T02:32:46;1.67;;;1.13;;
11100;SDS011;5604;50.722;7.078;2023-07-28T02:35:14;1.03;;;0.93;;
11100;SDS011;5604;50.722;7.078;2023-07-28T02:37:48;1.53;;;1.30;;
11100;SDS011;5604;50.722;7.078;2023-07-28T02:40:16;1.10;;;1.00;;
11100;SDS011;5604;50.722;7.078;2023-07-28T02:42:45;1.80;;;1.23;;
11100;SDS011;5604;50.722;7.078;2023-07-28T02:45:13;1.53;;;1.10;;
11100;SDS011;5604;50.722;7.078;2023-07-28T02:47:41;2.37;;;1.33;;
11100;SDS011;5604;50.722;7.078;2023-07-28T02:50:10;1.63;;;1.20;;
11100;SDS011;5604;50.722;7.078;2023-07-28T02:52:38;3.17;;;1.27;;
11100;SDS011;5604;50.722;7.078;2023-07-28T02:55:08;1.23;;;1.10;;
11100;SDS011;5604;50.722;7.078;2023-07-28T02:57:36;2.37;;;0.80;;
11100;SDS011;5604;50.722;7.078;2023-07-28T03:00:05;1.47;;;1.10;;
11100;SDS011;5604;50.722;7.078;2023-07-28T03:02:37;1.80;;;0.80;;
11100;SDS011;5604;50.722;7.078;2023-07-28T03:05:06;1.17;;;0.77;;
11100;SDS011;5604;50.722;7.078;2023-07-28T03:08:13;3.33;;;0.80;;
11100;SDS011;5604;50.722;7.078;2023-07-28T03:10:43;1.67;;;1.00;;
11100;SDS011;5604;50.722;7.078;2023-07-28T03:13:11;0.67;;;0.67;;
11100;SDS011;5604;50.722;7.078;2023-07-28T03:15:39;0.80;;;0.80;;
11100;SDS011;5604;50.722;7.078;2023-07-28T03:18:08;1.30;;;1.20;;
11100;SDS011;5604;50.722;7.078;2023-07-28T03:20:36;1.07;;;0.97;;
11100;SDS011;5604;50.722;7.078;2023-07-28T03:23:04;1.03;;;0.93;;
11100;SDS011;5604;50.722;7.078;2023-07-28T03:25:32;1.70;;;0.83;;
11100;SDS011;5604;50.722;7.078;2023-07-28T03:28:02;2.57;;;1.00;;
11100;SDS011;5604;50.722;7.078;2023-07-28T03:30:30;1.40;;;1.10;;
11100;SDS011;5604;50.722;7.078;2023-07-28T03:32:58;2.37;;;1.23;;
11100;SDS011;5604;50.722;7.078;2023-07-28T03:35:27;1.50;;;1.37;;
11100;SDS011;5604;50.722;7.078;2023-07-28T03:38:03;2.73;;;0.97;;
11100;SDS011;5604;50.722;7.078;2023-07-28T03:40:31;1.00;;;1.00;;
11100;SDS011;5604;50.722;7.078;2023-07-28T03:43:01;3.67;;;1.10;;
11100;SDS011;5604;50.722;7.078;2023-07-28T03:45:29;2.63;;;1.40;;
11100;SDS011;5604;50.722;7.078;2023-07-28T03:47:58;1.90;;;1.40;;
11100;SDS011;5604;50.722;7.078;2023-07-28T03:50:26;5.90;;;1.33;;
11100;SDS011;5604;50.722;7.078;2023-07-28T03:52:54;3.10;;;1.50;;
11100;SDS011;5604;50.722;7.078;2023-07-28T03:55:22;1.73;;;1.40;;
11100;SDS011;5604;50.722;7.078;2023-07-28T03:57:50;2.27;;;1.80;;
11100;SDS011;5604;50.722;7.078;2023-07-28T04:00:20;1.30;;;1.20;;
11100;SDS011;5604;50.722;7.078;2023-07-28T04:02:48;2.77;;;1.50;;
11100;SDS011;5604;50.722;7.078;2023-07-28T04:05:17;1.87;;;1.77;;
11100;SDS011;5604;50.722;7.078;2023-07-28T04:07:45;6.73;;;1.70;;
11100;SDS011;5604;50.722;7.078;2023-07-28T04:10:14;1.57;;;1.47;;
11100;SDS011;5604;50.722;7.078;2023-07-28T04:12:43;2.17;;;1.30;;
11100;SDS011;5604;50.722;7.078;2023-07-28T04:15:11;3.80;;;1.40;;
11100;SDS011;5604;50.722;7.078;2023-07-28T04:17:41;3.47;;;1.63;;
11100;SDS011;5604;50.722;7.078;2023-07-28T04:20:09;2.80;;;1.80;;
11100;SDS011;5604;50.722;7.078;2023-07-28T04:22:38;1.50;;;1.40;;
11100;SDS011;5604;50.722;7.078;2023-07-28T04:25:06;3.10;;;1.57;;
11100;SDS011;5604;50.722;7.078;2023-07-28T04:27:36;2.47;;;1.80;;
11100;SDS011;5604;50.722;7.078;2023-07-28T04:30:05;1.80;;;1.70;;
11100;SDS011;5604;50.722;7.078;2023-07-28T04:32:34;2.13;;;1.93;;
11100;SDS011;5604;50.722;7.078;2023-07-28T04:35:12;2.07;;;1.60;;
11100;SDS011;5604;50.722;7.078;2023-07-28T04:37:55;3.57;;;1.77;;
11100;SDS011;5604;50.722;7.078;2023-07-28T04:40:43;3.67;;;1.90;;
11100;SDS011;5604;50.722;7.078;2023-07-28T04:43:13;1.53;;;1.43;;
11100;SDS011;5604;50.722;7.078;2023-07-28T04:45:48;2.43;;;1.43;;
11100;SDS011;5604;50.722;7.078;2023-07-28T04:48:19;1.83;;;1.73;;
11100;SDS011;5604;50.722;7.078;2023-07-28T04:50:49;1.80;;;1.70;;
11100;SDS011;5604;50.722;7.078;2023-07-28T04:53:23;2.27;;;1.73;;
11100;SDS011;5604;50.722;7.078;2023-07-28T04:56:23;1.70;;;1.50;;
11100;SDS011;5604;50.722;7.078;2023-07-28T04:58:52;1.83;;;1.50;;
11100;SDS011;5604;50.722;7.078;2023-07-28T05:01:20;3.83;;;1.47;;
11100;SDS011;5604;50.722;7.078;2023-07-28T05:03:48;4.60;;;1.60;;
11100;SDS011;5604;50.722;7.078;2023-07-28T05:06:22;1.63;;;1.27;;
11100;SDS011;5604;50.722;7.078;2023-07-28T05:08:50;3.20;;;1.33;;
11100;SDS011;5604;50.722;7.078;2023-07-28T05:11:25;1.77;;;1.30;;
11100;SDS011;5604;50.722;7.078;2023-07-28T05:13:54;3.67;;;1.43;;
11100;SDS011;5604;50.722;7.078;2023-07-28T05:16:22;3.50;;;1.37;;
11100;SDS011;5604;50.722;7.078;2023-07-28T05:19:03;2.67;;;1.37;;
11100;SDS011;5604;50.722;7.078;2023-07-28T05:22:09;5.03;;;1.30;;
11100;SDS011;5604;50.722;7.078;2023-07-28T05:24:50;3.23;;;1.00;;
11100;SDS011;5604;50.722;7.078;2023-07-28T05:27:23;1.00;;;0.90;;
11100;SDS011;5604;50.722;7.078;2023-07-28T05:29:51;2.33;;;1.10;;
11100;SDS011;5604;50.722;7.078;2023-07-28T05:32:19;2.73;;;1.20;;
11100;SDS011;5604;50.722;7.078;2023-07-28T05:35:06;4.00;;;1.63;;
11100;SDS011;5604;50.722;7.078;2023-07-28T05:37:36;3.23;;;1.40;;
11100;SDS011;5604;50.722;7.078;2023-07-28T05:40:05;1.50;;;1.40;;
11100;SDS011;5604;50.722;7.078;2023-07-28T05:42:34;1.77;;;1.50;;
11100;SDS011;5604;50.722;7.078;2023-07-28T05:45:03;2.27;;;1.23;;
11100;SDS011;5604;50.722;7.078;2023-07-28T05:47:32;2.13;;;1.40;;
11100;SDS011;5604;50.722;7.078;2023-07-28T05:50:00;2.53;;;1.27;;
11100;SDS011;5604;50.722;7.078;2023-07-28T05:52:31;2.00;;;1.70;;
11100;SDS011;5604;50.722;7.078;2023-07-28T05:55:00;1.63;;;1.53;;
11100;SDS011;5604;50.722;7.078;2023-07-28T05:57:28;1.60;;;1.50;;
11100;SDS011;5604;50.722;7.078;2023-07-28T06:00:00;1.93;;;1.13;;
11100;SDS011;5604;50.722;7.078;2023-07-28T06:02:39;2.63;;;1.40;;
11100;SDS011;5604;50.722;7.078;2023-07-28T06:05:12;3.20;;;1.30;;
11100;SDS011;5604;50.722;7.078;2023-07-28T06:07:40;2.27;;;1.30;;
11100;SDS011;5604;50.722;7.078;2023-07-28T06:10:10;3.23;;;1.30;;
11100;SDS011;5604;50.722;7.078;2023-07-28T06:12:38;2.80;;;1.37;;
11100;SDS011;5604;50.722;7.078;2023-07-28T06:15:07;1.80;;;1.03;;
11100;SDS011;5604;50.722;7.078;2023-07-28T06:17:37;3.37;;;1.20;;
11100;SDS011;5604;50.722;7.078;2023-07-28T06:20:06;1.17;;;1.10;;
11100;SDS011;5604;50.722;7.078;2023-07-28T06:22:36;0.70;;;0.70;;
11100;SDS011;5604;50.722;7.078;2023-07-28T06:25:05;1.80;;;0.90;;
11100;SDS011;5604;50.722;7.078;2023-07-28T06:27:35;1.90;;;0.80;;
11100;SDS011;5604;50.722;7.078;2023-07-28T06:30:05;0.70;;;0.60;;
11100;SDS011;5604;50.722;7.078;2023-07-28T06:32:34;1.20;;;0.80;;
11100;SDS011;5604;50.722;7.078;2023-07-28T06:35:03;4.67;;;1.47;;
11100;SDS011;5604;50.722;7.078;2023-07-28T06:37:31;1.20;;;0.90;;
11100;SDS011;5604;50.722;7.078;2023-07-28T06:39:59;2.07;;;0.67;;
11100;SDS011;5604;50.722;7.078;2023-07-28T06:42:28;4.57;;;0.87;;
11100;SDS011;5604;50.722;7.078;2023-07-28T06:44:57;1.43;;;0.70;;
11100;SDS011;5604;50.722;7.078;2023-07-28T06:47:26;3.00;;;0.77;;
11100;SDS011;5604;50.722;7.078;2023-07-28T06:49:54;2.20;;;0.70;;
11100;SDS011;5604;50.722;7.078;2023-07-28T06:52:22;1.00;;;0.90;;
11100;SDS011;5604;50.722;7.078;2023-07-28T06:54:50;3.27;;;1.10;;
11100;SDS011;5604;50.722;7.078;2023-07-28T06:57:20;1.23;;;0.83;;
11100;SDS011;5604;50.722;7.078;2023-07-28T06:59:49;1.13;;;0.70;;
11100;SDS011;5604;50.722;7.078;2023-07-28T07:02:19;1.17;;;0.90;;
11100;SDS011;5604;50.722;7.078;2023-07-28T07:04:48;1.67;;;1.07;;
11100;SDS011;5604;50.722;7.078;2023-07-28T07:07:16;2.43;;;1.23;;
11100;SDS011;5604;50.722;7.078;2023-07-28T07:09:44;1.37;;;1.00;;
11100;SDS011;5604;50.722;7.078;2023-07-28T07:12:12;2.37;;;1.10;;
11100;SDS011;5604;50.722;7.078;2023-07-28T07:14:42;1.60;;;0.90;;
11100;SDS011;5604;50.722;7.078;2023-07-28T07:17:11;2.40;;;0.90;;
11100;SDS011;5604;50.722;7.078;2023-07-28T07:19:40;1.20;;;0.90;;
11100;SDS011;5604;50.722;7.078;2023-07-28T07:22:08;1.60;;;0.83;;
11100;SDS011;5604;50.722;7.078;2023-07-28T07:24:37;1.13;;;0.80;;
11100;SDS011;5604;50.722;7.078;2023-07-28T07:27:05;4.00;;;1.10;;
11100;SDS011;5604;50.722;7.078;2023-07-28T07:29:37;1.33;;;0.80;;
11100;SDS011;5604;50.722;7.078;2023-07-28T07:32:06;1.70;;;0.80;;
11100;SDS011;5604;50.722;7.078;2023-07-28T07:34:36;2.00;;;0.90;;
11100;SDS011;5604;50.722;7.078;2023-07-28T07:37:07;2.37;;;0.93;;
11100;SDS011;5604;50.722;7.078;2023-07-28T07:39:35;3.60;;;1.00;;
11100;SDS011;5604;50.722;7.078;2023-07-28T07:42:03;0.90;;;0.90;;
11100;SDS011;5604;50.722;7.078;2023-07-28T07:44:33;1.30;;;0.83;;
11100;SDS011;5604;50.722;7.078;2023-07-28T07:47:01;1.37;;;0.90;;
11100;SDS011;5604;50.722;7.078;2023-07-28T07:49:39;1.60;;;1.30;;
11100;SDS011;5604;50.722;7.078;2023-07-28T07:52:09;2.03;;;1.00;;
11100;SDS011;5604;50.722;7.078;2023-07-28T07:54:37;2.83;;;0.80;;
11100;SDS011;5604;50.722;7.078;2023-07-28T07:57:05;1.20;;;0.70;;
11100;SDS011;5604;50.722;7.078;2023-07-28T07:59:34;0.60;;;0.60;;
11100;SDS011;5604;50.722;7.078;2023-07-28T08:02:03;1.40;;;1.00;;
11100;SDS011;5604;50.722;7.078;2023-07-28T08:04:31;0.83;;;0.70;;
11100;SDS011;5604;50.722;7.078;2023-07-28T08:06:59;0.67;;;0.60;;
11100;SDS011;5604;50.722;7.078;2023-07-28T08:09:29;0.57;;;0.57;;
11100;SDS011;5604;50.722;7.078;2023-07-28T08:11:57;2.83;;;0.60;;
11100;SDS011;5604;50.722;7.078;2023-07-28T08:14:25;1.50;;;0.80;;
11100;SDS011;5604;50.722;7.078;2023-07-28T08:16:53;0.70;;;0.70;;
11100;SDS011;5604;50.722;7.078;2023-07-28T08:19:21;0.53;;;0.53;;
11100;SDS011;5604;50.722;7.078;2023-07-28T08:21:49;0.60;;;0.57;;
11100;SDS011;5604;50.722;7.078;2023-07-28T08:24:18;1.03;;;0.60;;
11100;SDS011;5604;50.722;7.078;2023-07-28T08:26:48;1.07;;;0.60;;
11100;SDS011;5604;50.722;7.078;2023-07-28T08:29:16;0.50;;;0.50;;
11100;SDS011;5604;50.722;7.078;2023-07-28T08:31:44;1.10;;;0.50;;
11100;SDS011;5604;50.722;7.078;2023-07-28T08:34:13;0.33;;;0.33;;
11100;SDS011;5604;50.722;7.078;2023-07-28T08:36:42;0.90;;;0.63;;
11100;SDS011;5604;50.722;7.078;2023-07-28T08:39:10;3.57;;;0.90;;
11100;SDS011;5604;50.722;7.078;2023-07-28T08:41:38;1.33;;;0.63;;
11100;SDS011;5604;50.722;7.078;2023-07-28T08:44:08;1.60;;;0.60;;
11100;SDS011;5604;50.722;7.078;2023-07-28T08:46:36;1.33;;;0.40;;
11100;SDS011;5604;50.722;7.078;2023-07-28T08:49:05;2.07;;;0.50;;
11100;SDS011;5604;50.722;7.078;2023-07-28T08:51:33;2.17;;;0.40;;
11100;SDS011;5604;50.722;7.078;2023-07-28T08:54:02;1.17;;;0.30;;
11100;SDS011;5604;50.722;7.078;2023-07-28T08:56:31;0.30;;;0.30;;
11100;SDS011;5604;50.722;7.078;2023-07-28T08:58:59;0.40;;;0.40;;
11100;SDS011;5604;50.722;7.078;2023-07-28T09:01:28;2.17;;;0.33;;
11100;SDS011;5604;50.722;7.078;2023-07-28T09:03:57;0.30;;;0.30;;
11100;SDS011;5604;50.722;7.078;2023-07-28T09:06:30;0.50;;;0.50;;
11100;SDS011;5604;50.722;7.078;2023-07-28T09:08:58;0.37;;;0.30;;
11100;SDS011;5604;50.722;7.078;2023-07-28T09:11:26;0.30;;;0.30;;
11100;SDS011;5604;50.722;7.078;2023-07-28T09:13:56;0.47;;;0.43;;
11100;SDS011;5604;50.722;7.078;2023-07-28T09:16:30;1.33;;;0.50;;
11100;SDS011;5604;50.722;7.078;2023-07-28T09:19:03;0.30;;;0.30;;
11100;SDS011;5604;50.722;7.078;2023-07-28T09:21:32;0.33;;;0.33;;
11100;SDS011;5604;50.722;7.078;2023-07-28T09:24:01;0.43;;;0.30;;
11100;SDS011;5604;50.722;7.078;2023-07-28T09:26:36;0.47;;;0.43;;
11100;SDS011;5604;50.722;7.078;2023-07-28T09:29:12;0.47;;;0.47;;
11100;SDS011;5604;50.722;7.078;2023-07-28T09:31:43;1.47;;;0.23;;
11100;SDS011;5604;50.722;7.078;2023-07-28T09:34:11;0.50;;;0.50;;
11100;SDS011;5604;50.722;7.078;2023-07-28T09:36:42;0.50;;;0.27;;
11100;SDS011;5604;50.722;7.078;2023-07-28T09:39:11;0.40;;;0.40;;
11100;SDS011;5604;50.722;7.078;2023-07-28T09:41:39;0.73;;;0.50;;
11100;SDS011;5604;50.722;7.078;2023-07-28T09:44:08;0.63;;;0.50;;
11100;SDS011;5604;50.722;7.078;2023-07-28T09:46:36;0.30;;;0.30;;
11100;SDS011;5604;50.722;7.078;2023-07-28T09:49:20;0.37;;;0.37;;
11100;SDS011;5604;50.722;7.078;2023-07-28T09:51:50;1.30;;;0.40;;
11100;SDS011;5604;50.722;7.078;2023-07-28T09:54:23;0.30;;;0.30;;
11100;SDS011;5604;50.722;7.078;2023-07-28T09:56:54;1.03;;;0.40;;
11100;SDS011;5604;50.722;7.078;2023-07-28T09:59:24;0.20;;;0.20;;
11100;SDS011;5604;50.722;7.078;2023-07-28T10:01:58;0.87;;;0.30;;
11100;SDS011;5604;50.722;7.078;2023-07-28T10:04:27;1.97;;;0.50;;
11100;SDS011;5604;50.722;7.078;2023-07-28T10:06:55;0.30;;;0.30;;
11100;SDS011;5604;50.722;7.078;2023-07-28T10:09:23;0.50;;;0.40;;
11100;SDS011;5604;50.722;7.078;2023-07-28T10:11:52;2.03;;;0.57;;
11100;SDS011;5604;50.722;7.078;2023-07-28T10:14:30;0.43;;;0.30;;
11100;SDS011;5604;50.722;7.078;2023-07-28T10:17:01;0.30;;;0.30;;
11100;SDS011;5604;50.722;7.078;2023-07-28T10:19:33;0.37;;;0.37;;
11100;SDS011;5604;50.722;7.078;2023-07-28T10:22:02;0.20;;;0.20;;
11100;SDS011;5604;50.722;7.078;2023-07-28T10:24:51;0.47;;;0.30;;
11100;SDS011;5604;50.722;7.078;2023-07-28T10:27:30;0.43;;;0.40;;
11100;SDS011;5604;50.722;7.078;2023-07-28T10:29:59;0.30;;;0.30;;
11100;SDS011;5604;50.722;7.078;2023-07-28T10:32:38;0.20;;;0.20;;
11100;SDS011;5604;50.722;7.078;2023-07-28T10:35:08;0.40;;;0.40;;
11100;SDS011;5604;50.722;7.078;2023-07-28T10:37:37;0.70;;;0.43;;
11100;SDS011;5604;50.722;7.078;2023-07-28T10:40:24;0.33;;;0.33;;
11100;SDS011;5604;50.722;7.078;2023-07-28T10:42:56;0.37;;;0.37;;
11100;SDS011;5604;50.722;7.078;2023-07-28T10:45:25;0.50;;;0.30;;
11100;SDS011;5604;50.722;7.078;2023-07-28T10:47:56;0.30;;;0.30;;
11100;SDS011;5604;50.722;7.078;2023-07-28T10:50:27;0.87;;;0.30;;
11100;SDS011;5604;50.722;7.078;2023-07-28T10:52:55;0.53;;;0.50;;
11100;SDS011;5604;50.722;7.078;2023-07-28T10:55:27;1.13;;;0.53;;
11100;SDS011;5604;50.722;7.078;2023-07-28T10:57:56;0.60;;;0.60;;
11100;SDS011;5604;50.722;7.078;2023-07-28T11:00:25;0.40;;;0.40;;
11100;SDS011;5604;50.722;7.078;2023-07-28T11:02:56;0.53;;;0.50;;
11100;SDS011;5604;50.722;7.078;2023-07-28T11:05:25;0.77;;;0.60;;
11100;SDS011;5604;50.722;7.078;2023-07-28T11:07:56;2.47;;;1.83;;
11100;SDS011;5604;50.722;7.078;2023-07-28T11:10:25;2.17;;;0.60;;
11100;SDS011;5604;50.722;7.078;2023-07-28T11:12:57;0.60;;;0.60;;
11100;SDS011;5604;50.722;7.078;2023-07-28T11:15:36;1.00;;;0.70;;
11100;SDS011;5604;50.722;7.078;2023-07-28T11:18:06;0.57;;;0.53;;
11100;SDS011;5604;50.722;7.078;2023-07-28T11:20:36;1.90;;;0.93;;
11100;SDS011;5604;50.722;7.078;2023-07-28T11:23:04;0.83;;;0.60;;
11100;SDS011;5604;50.722;7.078;2023-07-28T11:25:33;1.43;;;0.50;;
11100;SDS011;5604;50.722;7.078;2023-07-28T11:28:02;1.57;;;0.60;;
11100;SDS011;5604;50.722;7.078;2023-07-28T11:30:32;2.00;;;0.60;;
11100;SDS011;5604;50.722;7.078;2023-07-28T11:33:04;1.83;;;0.80;;
11100;SDS011;5604;50.722;7.078;2023-07-28T11:35:39;0.97;;;0.50;;
11100;SDS011;5604;50.722;7.078;2023-07-28T11:38:07;1.80;;;0.60;;
11100;SDS011;5604;50.722;7.078;2023-07-28T11:40:36;1.50;;;0.93;;
11100;SDS011;5604;50.722;7.078;2023-07-28T11:43:05;1.43;;;0.90;;
11100;SDS011;5604;50.722;7.078;2023-07-28T11:45:33;1.73;;;0.70;;
11100;SDS011;5604;50.722;7.078;2023-07-28T11:48:02;0.60;;;0.60;;
11100;SDS011;5604;50.722;7.078;2023-07-28T11:50:35;0.40;;;0.40;;
11100;SDS011;5604;50.722;7.078;2023-07-28T11:53:05;1.53;;;0.40;;
11100;SDS011;5604;50.722;7.078;2023-07-28T11:55:34;0.60;;;0.60;;
11100;SDS011;5604;50.722;7.078;2023-07-28T11:58:03;0.57;;;0.57;;
11100;SDS011;5604;50.722;7.078;2023-07-28T12:00:33;1.00;;;0.50;;
11100;SDS011;5604;50.722;7.078;2023-07-28T12:03:03;2.00;;;1.10;;
11100;SDS011;5604;50.722;7.078;2023-07-28T12:05:32;0.80;;;0.67;;
11100;SDS011;5604;50.722;7.078;2023-07-28T12:08:03;1.20;;;0.87;;
11100;SDS011;5604;50.722;7.078;2023-07-28T12:10:31;0.73;;;0.53;;
11100;SDS011;5604;50.722;7.078;2023-07-28T12:13:05;1.27;;;0.93;;
11100;SDS011;5604;50.722;7.078;2023-07-28T12:15:39;0.97;;;0.70;;
11100;SDS011;5604;50.722;7.078;2023-07-28T12:18:11;1.33;;;0.90;;
11100;SDS011;5604;50.722;7.078;2023-07-28T12:20:44;0.53;;;0.40;;
11100;SDS011;5604;50.722;7.078;2023-07-28T12:23:16;1.57;;;0.63;;
11100;SDS011;5604;50.722;7.078;2023-07-28T12:25:49;0.30;;;0.30;;
11100;SDS011;5604;50.722;7.078;2023-07-28T12:28:17;0.53;;;0.50;;
11100;SDS011;5604;50.722;7.078;2023-07-28T12:30:46;0.40;;;0.40;;
11100;SDS011;5604;50.722;7.078;2023-07-28T12:33:18;0.40;;;0.40;;
11100;SDS011;5604;50.722;7.078;2023-07-28T12:35:49;0.40;;;0.40;;
11100;SDS011;5604;50.722;7.078;2023-07-28T12:38:20;0.60;;;0.60;;
11100;SDS011;5604;50.722;7.078;2023-07-28T12:40:51;0.30;;;0.30;;
11100;SDS011;5604;50.722;7.078;2023-07-28T12:43:22;0.70;;;0.70;;
11100;SDS011;5604;50.722;7.078;2023-07-28T12:45:55;1.60;;;0.57;;
11100;SDS011;5604;50.722;7.078;2023-07-28T12:48:26;0.60;;;0.60;;
11100;SDS011;5604;50.722;7.078;2023-07-28T12:50:55;0.40;;;0.40;;
11100;SDS011;5604;50.722;7.078;2023-07-28T12:53:27;1.87;;;0.57;;
11100;SDS011;5604;50.722;7.078;2023-07-28T12:55:56;0.40;;;0.40;;
11100;SDS011;5604;50.722;7.078;2023-07-28T12:58:30;0.50;;;0.50;;
11100;SDS011;5604;50.722;7.078;2023-07-28T13:01:03;0.40;;;0.40;;
11100;SDS011;5604;50.722;7.078;2023-07-28T13:03:32;0.90;;;0.67;;
11100;SDS011;5604;50.722;7.078;2023-07-28T13:06:00;1.70;;;0.77;;
11100;SDS011;5604;50.722;7.078;2023-07-28T13:08:31;0.63;;;0.50;;
11100;SDS011;5604;50.722;7.078;2023-07-28T13:11:02;0.53;;;0.40;;
11100;SDS011;5604;50.722;7.078;2023-07-28T13:13:33;0.40;;;0.40;;
11100;SDS011;5604;50.722;7.078;2023-07-28T13:16:05;1.43;;;0.67;;
11100;SDS011;5604;50.722;7.078;2023-07-28T13:18:37;1.63;;;0.67;;
11100;SDS011;5604;50.722;7.078;2023-07-28T13:21:06;0.70;;;0.40;;
11100;SDS011;5604;50.722;7.078;2023-07-28T13:23:36;0.67;;;0.40;;
11100;SDS011;5604;50.722;7.078;2023-07-28T13:26:04;0.43;;;0.43;;
11100;SDS011;5604;50.722;7.078;2023-07-28T13:28:33;0.47;;;0.47;;
11100;SDS011;5604;50.722;7.078;2023-07-28T13:31:02;0.27;;;0.27;;
11100;SDS011;5604;50.722;7.078;2023-07-28T13:33:31;0.20;;;0.20;;
11100;SDS011;5604;50.722;7.078;2023-07-28T13:35:59;0.30;;;0.30;;
11100;SDS011;5604;50.722;7.078;2023-07-28T13:38:30;2.43;;;0.30;;
11100;SDS011;5604;50.722;7.078;2023-07-28T13:41:00;0.77;;;0.40;;
11100;SDS011;5604;50.722;7.078;2023-07-28T13:43:28;0.67;;;0.20;;
11100;SDS011;5604;50.722;7.078;2023-07-28T13:45:57;3.00;;;0.47;;
11100;SDS011;5604;50.722;7.078;2023-07-28T13:48:25;0.67;;;0.40;;
11100;SDS011;5604;50.722;7.078;2023-07-28T13:50:53;2.73;;;1.00;;
11100;SDS011;5604;50.722;7.078;2023-07-28T13:53:22;2.23;;;1.50;;
11100;SDS011;5604;50.722;7.078;2023-07-28T13:55:53;2.20;;;1.43;;
11100;SDS011;5604;50.722;7.078;2023-07-28T13:58:25;1.43;;;1.23;;
11100;SDS011;5604;50.722;7.078;2023-07-28T14:00:53;2.73;;;1.40;;
11100;SDS011;5604;50.722;7.078;2023-07-28T14:03:21;2.57;;;1.60;;
11100;SDS011;5604;50.722;7.078;2023-07-28T14:05:50;1.93;;;1.77;;
11100;SDS011;5604;50.722;7.078;2023-07-28T14:08:18;2.17;;;1.80;;
11100;SDS011;5604;50.722;7.078;2023-07-28T14:10:46;1.87;;;1.77;;
11100;SDS011;5604;50.722;7.078;2023-07-28T14:13:14;2.33;;;1.60;;
11100;SDS011;5604;50.722;7.078;2023-07-28T14:15:44;2.77;;;1.60;;
11100;SDS011;5604;50.722;7.078;2023-07-28T14:18:12;1.90;;;1.80;;
11100;SDS011;5604;50.722;7.078;2023-07-28T14:20:40;1.80;;;1.40;;
11100;SDS011;5604;50.722;7.078;2023-07-28T14:23:22;2.17;;;1.50;;
11100;SDS011;5604;50.722;7.078;2023-07-28T14:25:51;1.50;;;1.40;;
11100;SDS011;5604;50.722;7.078;2023-07-28T14:28:20;2.43;;;1.60;;
11100;SDS011;5604;50.722;7.078;2023-07-28T14:30:50;1.60;;;1.50;;
11100;SDS011;5604;50.722;7.078;2023-07-28T14:33:18;1.83;;;1.70;;
11100;SDS011;5604;50.722;7.078;2023-07-28T14:35:48;1.60;;;1.50;;
11100;SDS011;5604;50.722;7.078;2023-07-28T14:38:16;3.07;;;1.80;;
11100;SDS011;5604;50.722;7.078;2023-07-28T14:40:45;1.77;;;1.57;;
11100;SDS011;5604;50.722;7.078;2023-07-28T14:43:16;1.53;;;1.40;;
11100;SDS011;5604;50.722;7.078;2023-07-28T14:45:44;2.40;;;1.33;;
11100;SDS011;5604;50.722;7.078;2023-07-28T14:48:13;2.90;;;1.50;;
11100;SDS011;5604;50.722;7.078;2023-07-28T14:50:42;1.67;;;1.20;;
11100;SDS011;5604;50.722;7.078;2023-07-28T14:55:58;1.80;;;0.93;;
11100;SDS011;5604;50.722;7.078;2023-07-28T14:58:26;1.30;;;1.20;;
11100;SDS011;5604;50.722;7.078;2023-07-28T15:00:54;3.53;;;1.30;;
11100;SDS011;5604;50.722;7.078;2023-07-28T15:03:24;1.07;;;1.07;;
11100;SDS011;5604;50.722;7.078;2023-07-28T15:05:53;1.20;;;1.10;;
11100;SDS011;5604;50.722;7.078;2023-07-28T15:08:23;1.40;;;1.30;;
11100;SDS011;5604;50.722;7.078;2023-07-28T15:10:51;0.80;;;0.80;;
11100;SDS011;5604;50.722;7.078;2023-07-28T15:13:19;1.13;;;1.10;;
11100;SDS011;5604;50.722;7.078;2023-07-28T15:15:48;1.10;;;1.10;;
11100;SDS011;5604;50.722;7.078;2023-07-28T15:18:17;4.63;;;1.30;;
11100;SDS011;5604;50.722;7.078;2023-07-28T15:20:48;1.30;;;1.20;;
11100;SDS011;5604;50.722;7.078;2023-07-28T15:23:16;1.10;;;1.10;;